首页
METAR-TAF:

METAR-TAF

机场 :

Chibougamau, 魁北克, 加拿大

纬度: 49-46N, 经度: 074-32W, 海拔: 388米

当前天气观测

该预报发布于18分钟前的18:00 UTC
风速2节,风向多变
温度 0°C
湿度 59%
气压 1015 hPa
能見度: 14.5公里
少量云层高于5500英尺

METAR: CYMT 201800Z AUTO VRB02KT 9SM FEW055 00/M07 A2997 RMK SLP174

时间: 13:18 (18:18 UTC)

预报

该预报发布于40分钟前的17:38 UTC
预报有效从20日的 18点(UTC)到 21日的 01点(UTC)
风速3节,风向多变
能見度: 10公里
散云层高于4000英尺
散云层高于13000英尺
从 20日的 2200点(UTC)
风速5节,风向西
能見度: 10公里
散云层高于2000英尺
短暂存在
从 20日的 22点(UTC)到 21日的 01点(UTC)
散云层高于600英尺
多云层高于2000英尺
几率 30%
从 20日的 22点(UTC)到 21日的 01点(UTC)
多云层高于600英尺
阴天层高于2000英尺

TAF: CYMT 201738Z 2018/2101 VRB03KT P6SM SCT040 SCT130 FM202200 27005KT P6SM SCT020 TEMPO 2022/2101 SCT006 BKN020 PROB30 2022/2101 BKN006 OVC020 RMK FCST BASED ON AUTO OBS. NXT FCST WILL BE ISSUED AT 211245Z

超过4000个机场的气象观测和天气预报(METAR&TAF报告)。

可查询的气象台以黄色和红色小点在地图上表示。

将鼠标移到小点上方,可查看气象台名称。

然后点击查看天气观测和预报。

如需切换地图:点击带黑十字的绿色按钮放大地图;点击带横线的绿色按钮缩小地图;或者点击绿色箭头查看邻近地区的地图。


METAR-TAF: